Portada
METAR-TAF:

METAR-TAF

Aeroports :

Fritzlar, Alemanya

latitud: 51-07N, longitud: 009-17E, altitud: 172 m

Observació

L'informe es va fer fa 1 hora i 7 minuts, a les 11:20 UTC
Vent 9 kt del Sud-Est
Temperatura 8°C
Humitat 61%
Pressió 1004 hPa
Visibilitat 10 km o més
Escasses núvols a una alçada de 2800 ft
Cel ennuvolat a una alçada de 26000 ft

METAR: ETHF 141120Z 13009KT 9999 FEW028 BKN260 08/01 Q1004 BLU+BLU+

Hora: 13:27 (12:27 UTC)

Pronòstic

L'informe es va fer fa 1 hora i 2 minuts, a les 11:25 UTC
Pronòstic vàlid del 14 a les 12 UTC al 14 a les 21 UTC
Vent 7 kt del Est/Sud-Est
Visibilitat 10 km o més
Escasses núvols a una alçada de 2500 ft
Núvols disperses a una alçada de 8000 ft
Cel ennuvolat a una alçada de 27000 ft

TAF: ETHF 141125Z 1412/1421 12007KT 9999 NSW FEW025 SCT080 BKN270

Observacions i pronòstics meteorològics de més de 4000 aeroports (METAR i TAF).

Les estacions disponibles són els punts grocs i vermells al mapa.

Posi el ratolí al punt desitjat per veure el nom de l'estació.

Feu clic per veure les observacions i els pronòstics meteorològics.

Per canviar el mapa: feu clic els botons verds amb una creu de color negre per apropar; al botó verd amb un guió per allunyar la imatge; o en les fletxes verdes per a mapes adjacents.


METAR-TAF: